createdAt,value
2022-09-06T00:00:41.205Z,70.09
2022-09-06T00:03:10.798Z,70.39
2022-09-06T00:05:37.504Z,70.54
2022-09-06T00:08:05.968Z,70.61
2022-09-06T00:10:33.738Z,70.70
2022-09-06T00:13:02.242Z,70.57
2022-09-06T00:15:28.786Z,71.10
2022-09-06T00:17:58.457Z,71.56
2022-09-06T00:20:27.260Z,71.30
2022-09-06T00:22:58.695Z,71.48
2022-09-06T00:25:26.987Z,71.24
2022-09-06T00:27:56.552Z,71.21
2022-09-06T00:30:23.495Z,71.35
2022-09-06T00:32:50.038Z,71.15
2022-09-06T00:35:18.654Z,70.96
2022-09-06T00:37:45.296Z,71.57
2022-09-06T00:40:12.760Z,71.53
2022-09-06T00:42:39.507Z,71.19
2022-09-06T00:45:07.678Z,71.97
2022-09-06T00:47:36.835Z,72.37
2022-09-06T00:50:04.427Z,72.25
2022-09-06T00:52:32.117Z,72.22
2022-09-06T00:54:59.630Z,72.40
2022-09-06T00:57:27.280Z,72.30
2022-09-06T00:59:55.647Z,72.35
2022-09-06T01:02:22.620Z,72.57
2022-09-06T01:04:51.129Z,73.15
2022-09-06T01:07:39.861Z,73.41
2022-09-06T01:10:36.272Z,72.94
2022-09-06T01:13:31.088Z,73.58
2022-09-06T01:16:18.053Z,73.34
2022-09-06T01:19:13.441Z,73.87
2022-09-06T01:22:04.699Z,74.79
2022-09-06T01:24:52.717Z,74.71
2022-09-06T01:27:49.382Z,74.43
2022-09-06T01:30:18.851Z,74.87
2022-09-06T01:33:05.418Z,74.74
2022-09-06T01:35:40.957Z,74.89
2022-09-06T01:38:08.695Z,75.24
2022-09-06T01:40:36.443Z,75.30
2022-09-06T01:43:10.195Z,75.09
2022-09-06T01:45:48.920Z,75.12
2022-09-06T01:48:18.073Z,75.21
2022-09-06T01:51:05.541Z,75.54
2022-09-06T01:53:53.065Z,75.58
2022-09-06T01:56:31.692Z,75.40
2022-09-06T01:59:22.492Z,75.54
2022-09-06T02:02:27.537Z,75.55
2022-09-06T02:05:04.744Z,75.35
2022-09-06T02:07:34.321Z,75.89
2022-09-06T02:10:03.674Z,76.34
2022-09-06T02:12:33.009Z,76.38
2022-09-06T02:15:07.235Z,76.66
2022-09-06T02:17:38.784Z,76.73
2022-09-06T02:20:10.645Z,76.54
2022-09-06T02:22:41.410Z,76.31
2022-09-06T02:25:13.138Z,76.53
2022-09-06T02:27:39.867Z,76.53
2022-09-06T02:30:06.676Z,76.73
2022-09-06T02:32:40.168Z,76.82
2022-09-06T02:35:14.826Z,76.95
2022-09-06T02:37:42.325Z,77.03
2022-09-06T02:40:10.152Z,77.14
2022-09-06T02:42:36.640Z,77.10
2022-09-06T02:45:04.832Z,76.99
2022-09-06T02:47:31.180Z,77.25
2022-09-06T02:49:57.576Z,77.25
2022-09-06T02:52:23.985Z,77.43
2022-09-06T02:54:50.373Z,77.78
2022-09-06T02:57:16.809Z,77.88
2022-09-06T02:59:43.211Z,78.03
2022-09-06T03:02:09.686Z,78.07
2022-09-06T03:04:36.061Z,77.72
2022-09-06T03:07:02.419Z,78.00
2022-09-06T03:09:29.183Z,77.57
2022-09-06T03:11:55.571Z,77.44
2022-09-06T03:14:21.964Z,77.52
2022-09-06T03:16:48.341Z,77.58
2022-09-06T03:19:14.748Z,77.53
2022-09-06T03:21:41.173Z,77.68
2022-09-06T03:24:07.602Z,77.36
2022-09-06T03:26:33.993Z,77.59
2022-09-06T03:29:00.346Z,77.69
2022-09-06T03:31:26.760Z,78.13
2022-09-06T03:33:53.159Z,77.95
2022-09-06T03:36:19.521Z,78.15
2022-09-06T03:38:46.032Z,78.03
2022-09-06T03:41:12.555Z,78.37
2022-09-06T03:43:38.953Z,78.14
2022-09-06T03:46:05.504Z,77.79
2022-09-06T03:48:31.952Z,77.82
2022-09-06T03:50:59.000Z,77.57
2022-09-06T03:53:27.961Z,78.07
2022-09-06T03:55:55.963Z,78.01
2022-09-06T03:58:24.803Z,77.99
2022-09-06T04:01:07.104Z,78.25
2022-09-06T04:03:34.367Z,78.19
2022-09-06T04:06:00.884Z,78.26
2022-09-06T04:08:28.179Z,78.21
2022-09-06T04:10:55.647Z,78.83
2022-09-06T04:13:23.285Z,78.87
2022-09-06T04:15:50.805Z,79.82
2022-09-06T04:18:17.244Z,80.18
2022-09-06T04:20:45.624Z,80.08
2022-09-06T04:23:11.994Z,79.96
2022-09-06T04:25:38.404Z,79.92
2022-09-06T04:28:04.836Z,79.80
2022-09-06T04:30:31.380Z,79.89
2022-09-06T04:32:57.751Z,79.79
2022-09-06T04:35:24.182Z,79.68
2022-09-06T04:37:50.524Z,79.89
2022-09-06T04:40:17.024Z,79.48
2022-09-06T04:42:43.448Z,79.52
2022-09-06T04:45:10.376Z,79.25
2022-09-06T04:47:36.822Z,79.28
2022-09-06T04:50:03.318Z,79.82
2022-09-06T04:52:30.413Z,79.69
2022-09-06T04:54:57.124Z,79.88
2022-09-06T04:57:23.525Z,80.13
2022-09-06T04:59:49.881Z,80.05
2022-09-06T05:02:16.373Z,80.08
2022-09-06T05:04:42.768Z,80.28
2022-09-06T05:07:09.395Z,80.15
2022-09-06T05:09:36.775Z,79.88
2022-09-06T05:12:03.809Z,79.61
2022-09-06T05:14:30.797Z,79.44
2022-09-06T05:16:57.402Z,79.48
2022-09-06T05:19:24.161Z,79.64
2022-09-06T05:21:52.057Z,79.14
2022-09-06T05:24:18.782Z,78.97
2022-09-06T05:26:45.191Z,79.29
2022-09-06T05:29:11.989Z,78.98
2022-09-06T05:31:38.464Z,78.96
2022-09-06T05:34:05.088Z,78.78
2022-09-06T05:36:32.167Z,79.08
2022-09-06T05:38:59.397Z,78.98
2022-09-06T05:41:26.686Z,79.02
2022-09-06T05:43:53.096Z,79.26
2022-09-06T05:46:19.924Z,78.73
2022-09-06T05:49:00.382Z,79.02
2022-09-06T05:51:27.134Z,78.72
2022-09-06T05:53:53.509Z,78.34
2022-09-06T05:56:19.946Z,78.27
2022-09-06T05:58:46.384Z,78.24
2022-09-06T06:01:27.172Z,78.46
2022-09-06T06:04:04.653Z,78.34
2022-09-06T06:06:33.753Z,77.93
2022-09-06T06:09:00.532Z,78.00
2022-09-06T06:11:27.532Z,77.96
2022-09-06T06:13:54.281Z,76.60
2022-09-06T06:16:22.355Z,77.03
2022-09-06T06:18:52.209Z,77.63
2022-09-06T06:21:21.284Z,77.64
2022-09-06T06:23:54.127Z,77.89
2022-09-06T06:26:21.165Z,77.98
2022-09-06T06:28:48.798Z,78.22
2022-09-06T06:31:15.737Z,78.04
2022-09-06T06:33:42.542Z,77.74
2022-09-06T06:36:14.740Z,77.39
2022-09-06T06:38:43.654Z,77.36
2022-09-06T06:41:12.551Z,77.27
2022-09-06T06:43:39.324Z,77.06
2022-09-06T06:46:11.117Z,77.04
2022-09-06T06:48:42.142Z,76.64
2022-09-06T06:51:09.683Z,75.89
2022-09-06T06:53:36.329Z,75.66
2022-09-06T06:56:18.877Z,75.22
2022-09-06T06:58:46.559Z,74.92
2022-09-06T07:01:13.728Z,74.67
2022-09-06T07:03:40.274Z,74.56
2022-09-06T07:08:39.556Z,74.10
2022-09-06T07:11:07.414Z,73.82
2022-09-06T07:13:34.278Z,72.79
2022-09-06T07:16:15.110Z,72.72
2022-09-06T07:18:42.993Z,72.80
2022-09-06T07:26:31.732Z,72.41
2022-09-06T07:29:03.144Z,71.53
2022-09-06T07:34:17.607Z,70.87
2022-09-06T07:36:43.975Z,70.65
2022-09-06T07:39:10.388Z,70.06
2022-09-06T07:41:36.759Z,70.22
2022-09-06T07:44:03.453Z,69.56
2022-09-06T07:46:29.862Z,68.99
2022-09-06T07:48:56.375Z,69.29
2022-09-06T07:51:23.169Z,69.11
2022-09-06T07:54:12.908Z,69.01
2022-09-06T07:56:42.122Z,67.80
2022-09-06T07:59:09.215Z,67.95
2022-09-06T08:01:37.498Z,66.69
2022-09-06T08:04:06.925Z,67.37
2022-09-06T08:09:22.991Z,66.84
2022-09-06T08:11:50.994Z,65.79
2022-09-06T08:14:17.453Z,65.07
2022-09-06T08:16:43.899Z,64.12
2022-09-06T08:19:12.235Z,64.23
2022-09-06T08:21:39.048Z,64.75
2022-09-06T08:24:07.598Z,63.24
2022-09-06T08:26:36.226Z,61.84
2022-09-06T08:29:06.732Z,62.33
2022-09-06T08:31:35.566Z,62.46
2022-09-06T08:34:02.539Z,62.49
2022-09-06T08:36:30.583Z,60.82
2022-09-06T08:38:58.381Z,60.96
2022-09-06T08:41:26.105Z,59.84
2022-09-06T08:46:54.545Z,60.10
2022-09-06T08:49:21.171Z,59.06
2022-09-06T08:52:14.063Z,59.31
2022-09-06T08:54:52.597Z,59.53
2022-09-06T08:57:41.535Z,58.81
2022-09-06T09:00:13.270Z,57.70
2022-09-06T09:02:51.715Z,58.64
2022-09-06T09:05:23.519Z,57.47
2022-09-06T09:08:20.465Z,56.47
2022-09-06T09:11:03.865Z,56.17
2022-09-06T09:13:43.506Z,55.62
2022-09-06T09:16:10.073Z,53.80
2022-09-06T09:18:39.748Z,54.17
2022-09-06T09:21:06.287Z,54.63
2022-09-06T09:23:32.724Z,54.22
2022-09-06T09:26:03.245Z,52.82
2022-09-06T09:28:29.938Z,53.50
2022-09-06T09:30:57.020Z,52.91
2022-09-06T09:33:33.570Z,53.35
2022-09-06T09:36:05.062Z,52.37
2022-09-06T09:38:40.143Z,50.74
2022-09-06T09:41:08.216Z,51.14
2022-09-06T09:43:38.417Z,52.56
2022-09-06T09:46:24.382Z,49.90
2022-09-06T09:49:10.246Z,50.64
2022-09-06T09:51:46.148Z,50.85
2022-09-06T09:54:15.094Z,50.82
2022-09-06T09:56:49.679Z,50.34
2022-09-06T09:59:29.505Z,50.06
2022-09-06T10:02:01.543Z,49.97
2022-09-06T10:04:44.745Z,49.02
2022-09-06T10:07:16.120Z,49.08
2022-09-06T10:09:46.322Z,49.92
2022-09-06T10:12:18.039Z,48.80
2022-09-06T10:14:47.185Z,49.27
2022-09-06T10:17:37.044Z,50.00
2022-09-06T10:20:12.552Z,49.90
2022-09-06T10:23:00.667Z,49.99
2022-09-06T10:25:38.113Z,49.03
2022-09-06T10:28:28.174Z,48.71
2022-09-06T10:31:36.529Z,47.43
2022-09-06T10:34:33.150Z,47.30
2022-09-06T10:37:28.048Z,45.70
2022-09-06T10:40:10.068Z,46.84
2022-09-06T10:42:44.036Z,48.14
2022-09-06T10:45:28.036Z,47.23
2022-09-06T10:48:02.747Z,46.45
2022-09-06T10:50:38.479Z,46.38
2022-09-06T10:53:12.049Z,46.97
2022-09-06T10:55:40.843Z,46.52
2022-09-06T10:58:19.663Z,45.18
2022-09-06T11:00:47.801Z,46.03
2022-09-06T11:06:10.908Z,44.91
2022-09-06T11:08:49.724Z,44.65
2022-09-06T11:11:36.005Z,44.67
2022-09-06T11:14:13.334Z,44.22
2022-09-06T11:16:57.653Z,43.60
2022-09-06T11:19:32.469Z,42.28
2022-09-06T11:22:27.634Z,44.16
2022-09-06T11:25:21.838Z,44.74
2022-09-06T11:27:58.299Z,43.81
2022-09-06T11:30:26.832Z,43.28
2022-09-06T11:33:10.757Z,43.87
2022-09-06T11:35:37.612Z,44.38
2022-09-06T11:38:06.066Z,42.99
2022-09-06T11:40:42.454Z,43.23
2022-09-06T11:43:10.411Z,44.09
2022-09-06T11:45:52.254Z,42.26
2022-09-06T11:48:25.202Z,42.03
2022-09-06T11:50:54.520Z,42.70
2022-09-06T11:53:23.869Z,41.68
2022-09-06T11:55:59.494Z,41.65
2022-09-06T11:58:44.880Z,41.55
2022-09-06T12:01:16.371Z,41.89
2022-09-06T12:07:02.582Z,41.41
2022-09-06T12:09:31.996Z,40.80
2022-09-06T12:12:00.081Z,41.24
2022-09-06T12:14:42.484Z,41.74
2022-09-06T12:17:09.563Z,41.27
2022-09-06T12:19:51.717Z,40.34
2022-09-06T12:22:30.018Z,40.62
2022-09-06T12:25:34.802Z,40.56
2022-09-06T12:28:19.856Z,39.76
2022-09-06T12:30:47.986Z,39.27
2022-09-06T12:33:25.172Z,38.68
2022-09-06T12:38:25.574Z,39.15
2022-09-06T12:40:56.373Z,38.14
2022-09-06T12:43:22.778Z,38.82
2022-09-06T12:45:52.171Z,38.56
2022-09-06T12:48:28.487Z,37.47
2022-09-06T12:51:04.798Z,38.68
2022-09-06T12:53:31.902Z,37.20
2022-09-06T12:56:07.811Z,38.49
2022-09-06T12:58:35.469Z,37.32
2022-09-06T13:01:12.440Z,37.16
2022-09-06T13:03:43.914Z,36.18
2022-09-06T13:06:16.244Z,36.69
2022-09-06T13:08:49.763Z,36.71
2022-09-06T13:11:23.015Z,35.78
2022-09-06T13:13:52.407Z,35.63
2022-09-06T13:16:24.171Z,35.20
2022-09-06T13:18:51.005Z,35.67
2022-09-06T13:21:27.724Z,36.80
2022-09-06T13:23:54.250Z,36.49
2022-09-06T13:26:38.031Z,36.73
2022-09-06T13:29:16.562Z,36.25
2022-09-06T13:31:47.987Z,36.04
2022-09-06T13:34:26.672Z,35.49
2022-09-06T13:37:06.529Z,35.59
2022-09-06T13:39:39.534Z,36.40
2022-09-06T13:42:11.660Z,34.19
2022-09-06T13:44:39.489Z,35.01
2022-09-06T13:47:06.287Z,32.72
2022-09-06T13:49:33.024Z,33.21
2022-09-06T13:52:02.103Z,33.36
2022-09-06T13:54:29.658Z,32.71
2022-09-06T13:56:56.697Z,31.66
2022-09-06T13:59:24.644Z,33.16
2022-09-06T14:01:59.609Z,32.95
2022-09-06T14:04:26.415Z,32.42
2022-09-06T14:06:53.969Z,32.22
2022-09-06T14:09:20.874Z,32.16
2022-09-06T14:11:48.408Z,31.90
2022-09-06T14:14:15.708Z,33.03
2022-09-06T14:16:42.088Z,33.42
2022-09-06T14:19:08.481Z,31.22
2022-09-06T14:21:34.879Z,31.45
2022-09-06T14:24:04.428Z,32.56
2022-09-06T14:26:31.638Z,32.36
2022-09-06T14:28:58.015Z,32.32
2022-09-06T14:31:27.084Z,33.04
2022-09-06T14:33:55.535Z,33.60
2022-09-06T14:36:26.072Z,32.98
2022-09-06T14:38:53.433Z,32.29
2022-09-06T14:41:20.518Z,33.29
2022-09-06T14:43:52.672Z,34.13
2022-09-06T14:46:21.946Z,31.58
2022-09-06T14:48:49.279Z,34.33
2022-09-06T14:51:21.747Z,33.45
2022-09-06T14:53:51.071Z,32.69
2022-09-06T14:56:18.142Z,34.06
2022-09-06T14:58:44.866Z,34.08
2022-09-06T15:01:20.491Z,32.98
2022-09-06T15:03:51.376Z,33.45
2022-09-06T15:06:20.556Z,33.83
2022-09-06T15:08:48.431Z,34.51
2022-09-06T15:11:27.109Z,33.78
2022-09-06T15:13:53.468Z,34.44
2022-09-06T15:16:19.990Z,33.87
2022-09-06T15:18:46.611Z,34.42
2022-09-06T15:21:15.743Z,34.37
2022-09-06T15:23:43.605Z,35.33
2022-09-06T15:26:11.976Z,36.08
2022-09-06T15:28:40.195Z,36.10
2022-09-06T15:31:08.356Z,36.94
2022-09-06T15:33:36.225Z,36.88
2022-09-06T15:36:06.359Z,36.41
2022-09-06T15:38:38.021Z,36.73
2022-09-06T15:41:11.924Z,37.50
2022-09-06T15:43:42.072Z,37.70
2022-09-06T15:46:09.543Z,37.26
2022-09-06T15:48:49.976Z,37.92
2022-09-06T15:51:20.714Z,36.87
2022-09-06T15:53:47.313Z,37.19
2022-09-06T15:56:16.094Z,37.80
2022-09-06T15:58:43.308Z,39.01
2022-09-06T16:01:12.600Z,38.99
2022-09-06T16:03:44.316Z,38.58
2022-09-06T16:06:27.786Z,39.20
2022-09-06T16:09:00.878Z,39.50
2022-09-06T16:11:28.956Z,39.59
2022-09-06T16:13:56.121Z,40.12
2022-09-06T16:16:22.882Z,40.88
2022-09-06T16:18:49.337Z,40.30
2022-09-06T16:21:21.440Z,40.37
2022-09-06T16:23:50.280Z,40.90
2022-09-06T16:26:21.305Z,40.94
2022-09-06T16:28:50.489Z,40.84
2022-09-06T16:31:17.712Z,41.40
2022-09-06T16:33:45.485Z,41.87
2022-09-06T16:36:12.871Z,42.17
2022-09-06T16:38:39.797Z,42.19
2022-09-06T16:41:13.012Z,43.49
2022-09-06T16:43:39.381Z,44.32
2022-09-06T16:46:06.736Z,43.29
2022-09-06T16:48:33.995Z,43.35
2022-09-06T16:51:17.911Z,43.33
2022-09-06T16:53:46.306Z,43.46
2022-09-06T16:56:15.282Z,42.70
2022-09-06T16:58:43.683Z,43.08
2022-09-06T17:01:10.311Z,43.42
2022-09-06T17:03:39.041Z,44.06
2022-09-06T17:06:07.151Z,44.21
2022-09-06T17:08:34.855Z,45.06
2022-09-06T17:11:09.735Z,45.45
2022-09-06T17:13:36.876Z,45.59
2022-09-06T17:16:22.665Z,44.73
2022-09-06T17:18:49.996Z,44.86
2022-09-06T17:21:16.397Z,44.43
2022-09-06T17:23:42.994Z,45.25
2022-09-06T17:26:09.378Z,44.96
2022-09-06T17:28:37.351Z,45.01
2022-09-06T17:31:05.801Z,44.95
2022-09-06T17:33:33.516Z,45.28
2022-09-06T17:36:16.927Z,45.02
2022-09-06T17:38:44.860Z,45.09
2022-09-06T17:41:21.581Z,45.38
2022-09-06T17:43:48.550Z,45.50
2022-09-06T17:46:15.048Z,45.72
2022-09-06T17:48:43.495Z,46.89
2022-09-06T17:51:11.583Z,47.26
2022-09-06T17:53:38.802Z,47.60
2022-09-06T17:56:09.771Z,47.67
2022-09-06T17:58:37.489Z,48.07
2022-09-06T18:01:12.407Z,48.03
2022-09-06T18:03:42.959Z,48.25
2022-09-06T18:06:14.997Z,49.06
2022-09-06T18:08:43.705Z,49.07
2022-09-06T18:11:16.592Z,49.33
2022-09-06T18:13:43.936Z,49.47
2022-09-06T18:16:12.149Z,49.37
2022-09-06T18:18:38.657Z,50.19
2022-09-06T18:21:08.430Z,50.67
2022-09-06T18:23:35.399Z,51.49
2022-09-06T18:26:07.023Z,52.32
2022-09-06T18:28:36.220Z,52.93
2022-09-06T18:31:10.904Z,53.15
2022-09-06T18:33:38.174Z,53.43
2022-09-06T18:36:06.765Z,53.61
2022-09-06T18:38:38.669Z,53.87
2022-09-06T18:41:07.353Z,53.57
2022-09-06T18:43:42.884Z,53.78
2022-09-06T18:46:15.916Z,54.81
2022-09-06T18:48:42.412Z,54.40
2022-09-06T18:51:16.197Z,54.15
2022-09-06T18:53:44.807Z,54.36
2022-09-06T18:56:13.891Z,55.06
2022-09-06T18:58:41.478Z,54.96
2022-09-06T19:01:17.878Z,55.45
2022-09-06T19:03:44.375Z,54.69
2022-09-06T19:06:19.332Z,54.70
2022-09-06T19:08:46.884Z,55.11
2022-09-06T19:11:16.931Z,54.67
2022-09-06T19:13:45.299Z,53.98
2022-09-06T19:16:13.389Z,53.95
2022-09-06T19:18:40.606Z,54.12
2022-09-06T19:21:09.367Z,54.03
2022-09-06T19:23:38.849Z,54.33
2022-09-06T19:26:07.533Z,54.60
2022-09-06T19:28:35.533Z,54.59
2022-09-06T19:31:18.628Z,54.83
2022-09-06T19:33:47.887Z,54.98
2022-09-06T19:36:15.180Z,55.21
2022-09-06T19:39:02.083Z,55.69
2022-09-06T19:41:29.965Z,56.31
2022-09-06T19:43:57.994Z,56.32
2022-09-06T19:46:25.108Z,56.78
2022-09-06T19:48:53.960Z,56.98
2022-09-06T19:51:20.960Z,57.20
2022-09-06T19:53:53.058Z,57.58
2022-09-06T19:56:25.175Z,57.46
2022-09-06T19:58:56.031Z,57.84
2022-09-06T20:01:25.025Z,58.30
2022-09-06T20:03:52.486Z,58.74
2022-09-06T20:06:19.036Z,58.49
2022-09-06T20:08:50.486Z,58.62
2022-09-06T20:11:17.950Z,58.90
2022-09-06T20:13:44.473Z,58.68
2022-09-06T20:16:12.413Z,59.36
2022-09-06T20:18:39.704Z,59.41
2022-09-06T20:21:06.248Z,59.06
2022-09-06T20:23:34.279Z,59.15
2022-09-06T20:26:03.703Z,59.34
2022-09-06T20:28:30.323Z,59.41
2022-09-06T20:31:02.202Z,59.91
2022-09-06T20:33:29.491Z,60.06
2022-09-06T20:35:59.317Z,60.69
2022-09-06T20:38:25.733Z,60.58
2022-09-06T20:41:04.601Z,60.73
2022-09-06T20:43:38.999Z,60.92
2022-09-06T20:46:10.028Z,61.11
2022-09-06T20:48:42.127Z,60.93
2022-09-06T20:51:13.906Z,60.95
2022-09-06T20:53:43.273Z,61.10
2022-09-06T20:56:15.304Z,61.28
2022-09-06T20:58:42.037Z,62.32
2022-09-06T21:01:11.701Z,62.87
2022-09-06T21:03:39.680Z,63.78
2022-09-06T21:06:11.238Z,63.82
2022-09-06T21:08:42.335Z,64.04
2022-09-06T21:11:10.000Z,63.96
2022-09-06T21:13:37.323Z,64.56
2022-09-06T21:16:04.790Z,64.38
2022-09-06T21:18:32.623Z,64.49
2022-09-06T21:21:06.809Z,64.15
2022-09-06T21:23:35.433Z,64.13
2022-09-06T21:26:04.467Z,64.30
2022-09-06T21:28:33.260Z,64.33
2022-09-06T21:31:23.157Z,63.82
2022-09-06T21:33:54.951Z,64.21
2022-09-06T21:36:24.029Z,63.89
2022-09-06T21:38:55.372Z,63.99
2022-09-06T21:41:23.186Z,64.16
2022-09-06T21:43:54.256Z,63.92
2022-09-06T21:46:22.532Z,63.64
2022-09-06T21:48:51.240Z,63.44
2022-09-06T21:51:19.967Z,63.32
2022-09-06T21:53:50.045Z,62.97
2022-09-06T21:56:19.531Z,62.58
2022-09-06T21:58:49.856Z,62.16
2022-09-06T22:01:16.415Z,61.42
2022-09-06T22:03:42.924Z,61.15
2022-09-06T22:06:11.501Z,60.75
2022-09-06T22:08:38.670Z,60.74
2022-09-06T22:11:19.961Z,60.35
2022-09-06T22:13:47.509Z,60.91
2022-09-06T22:16:16.138Z,60.80
2022-09-06T22:18:42.835Z,61.07
2022-09-06T22:21:18.332Z,61.66
2022-09-06T22:23:59.983Z,62.47
2022-09-06T22:26:28.692Z,63.38
2022-09-06T22:28:57.701Z,63.70
2022-09-06T22:31:26.738Z,64.98
2022-09-06T22:33:53.639Z,67.27
2022-09-06T22:36:21.017Z,69.57
2022-09-06T22:38:47.504Z,71.62
2022-09-06T22:41:14.244Z,76.28
2022-09-06T22:43:40.594Z,80.15
2022-09-06T22:46:11.041Z,82.20
2022-09-06T22:48:37.523Z,84.29
2022-09-06T22:51:06.033Z,85.47
2022-09-06T22:53:33.104Z,86.69
2022-09-06T22:55:59.682Z,87.37
2022-09-06T22:58:29.594Z,87.42
2022-09-06T23:00:56.589Z,88.12
2022-09-06T23:03:23.258Z,88.51
2022-09-06T23:05:49.761Z,88.80
2022-09-06T23:08:16.142Z,89.50
2022-09-06T23:10:44.160Z,89.82
2022-09-06T23:13:11.148Z,89.98
2022-09-06T23:15:40.690Z,90.57
2022-09-06T23:18:07.416Z,90.55
2022-09-06T23:20:36.834Z,90.88
2022-09-06T23:23:04.441Z,90.99
2022-09-06T23:25:30.903Z,91.29
2022-09-06T23:27:59.429Z,91.77
2022-09-06T23:30:26.112Z,91.74
2022-09-06T23:32:52.477Z,91.72
2022-09-06T23:35:18.848Z,92.07
2022-09-06T23:37:45.225Z,92.01
2022-09-06T23:40:11.680Z,92.08
2022-09-06T23:42:38.095Z,92.35
2022-09-06T23:45:05.919Z,92.77
2022-09-06T23:47:32.311Z,92.87
2022-09-06T23:49:58.696Z,92.93
2022-09-06T23:52:25.096Z,92.95
2022-09-06T23:54:51.440Z,92.95
2022-09-06T23:57:17.797Z,92.94
2022-09-06T23:59:44.161Z,92.87
